Medora, Iowa
Current Conditions -  °F | °C
As of 3:54 AM on Sunday 21 Dec 2014 (Local Time) from KDSM Reporting Station
Haze Haze  
Wind Chill: 32°   Ceiling: 1000
Heat Index: 39°   Visibility: 6mi
Dew Point: 35°   Wind: 12mph
Humidity: 86%   Direction: 180°S
Pressure: 30.03"   Gusts: NA
Location:  41.3316°N, 93.579°W
Report Text: KDSM 210954Z 18010KT 6SM BR BKN010 OVC030 04/02 A3003 RMK AO2 SLP175 T00390017
Loading
Personal Weather Stations






























Interactive Weather Map New forecast layout! Learn more

10-Day Weather Forecast

Advertisements
Track Severe Weather on mobile